createdAt,value
2022-09-23T00:00:05.149Z,100865.75
2022-09-23T00:03:08.143Z,100847.69
2022-09-23T00:06:13.151Z,100859.41
2022-09-23T00:09:15.855Z,100863.66
2022-09-23T00:12:18.371Z,100857.44
2022-09-23T00:15:21.750Z,100849.25
2022-09-23T00:18:24.286Z,100849.25
2022-09-23T00:21:27.302Z,100855.53
2022-09-23T00:24:32.451Z,100863.53
2022-09-23T00:27:36.352Z,100859.12
2022-09-23T00:30:41.090Z,100852.91
2022-09-23T00:33:43.868Z,100839.47
2022-09-23T00:36:46.295Z,100845.75
2022-09-23T00:39:49.100Z,100846.69
2022-09-23T00:42:52.189Z,100843.87
2022-09-23T00:45:55.295Z,100838.47
2022-09-23T00:49:04.681Z,100843.75
2022-09-23T00:52:11.476Z,100835.62
2022-09-23T00:55:18.565Z,100828.44
2022-09-23T00:58:28.434Z,100829.22
2022-09-23T01:01:31.100Z,100830.84
2022-09-23T01:04:34.439Z,100827.37
2022-09-23T01:07:36.875Z,100824.75
2022-09-23T01:11:21.225Z,100829.38
2022-09-23T01:14:42.154Z,100819.38
2022-09-23T01:17:53.656Z,100810.44
2022-09-23T01:21:11.149Z,100819.34
2022-09-23T01:24:34.924Z,100815.78
2022-09-23T01:27:56.422Z,100819.22
2022-09-23T01:31:37.214Z,100809.59
2022-09-23T01:34:50.184Z,100817.47
2022-09-23T01:38:08.879Z,100817.44
2022-09-23T01:41:32.954Z,100812.84
2022-09-23T01:44:48.332Z,100819.25
2022-09-23T01:48:28.156Z,100818.28
2022-09-23T01:51:37.972Z,100817.69
2022-09-23T01:54:47.361Z,100813.81
2022-09-23T01:57:58.183Z,100820.13
2022-09-23T02:01:04.374Z,100818.34
2022-09-23T02:04:11.582Z,100807.59
2022-09-23T02:07:33.840Z,100811.22
2022-09-23T02:10:47.177Z,100803.31
2022-09-23T02:14:00.299Z,100802.41
2022-09-23T02:17:08.582Z,100803.22
2022-09-23T02:20:14.952Z,100802.34
2022-09-23T02:23:45.132Z,100802.31
2022-09-23T02:26:54.476Z,100807.69
2022-09-23T02:30:03.262Z,100804.88
2022-09-23T02:33:08.751Z,100807.53
2022-09-23T02:36:26.150Z,100782.28
2022-09-23T02:39:38.363Z,100807.44
2022-09-23T02:43:19.874Z,100814.56
2022-09-23T02:46:23.269Z,100816.28
2022-09-23T02:49:29.450Z,100816.13
2022-09-23T02:52:33.050Z,100817.88
2022-09-23T02:55:35.780Z,100812.47
2022-09-23T02:58:38.208Z,100812.41
2022-09-23T03:02:13.548Z,100810.44
2022-09-23T03:05:24.025Z,100819.38
2022-09-23T03:08:32.791Z,100814.94
2022-09-23T03:11:38.518Z,100821.94
2022-09-23T03:14:57.291Z,100813.88
2022-09-23T03:18:23.631Z,100804.13
2022-09-23T03:21:29.094Z,100801.41
2022-09-23T03:24:32.697Z,100802.22
2022-09-23T03:27:36.677Z,100797.00
2022-09-23T03:30:39.916Z,100792.53
2022-09-23T03:33:46.947Z,100789.78
2022-09-23T03:36:55.976Z,100787.03
2022-09-23T03:40:25.958Z,100789.81
2022-09-23T03:43:30.741Z,100789.94
2022-09-23T03:46:35.509Z,100797.31
2022-09-23T03:49:39.827Z,100800.69
2022-09-23T03:52:42.807Z,100796.25
2022-09-23T03:55:47.181Z,100793.53
2022-09-23T03:58:49.911Z,100798.09
2022-09-23T04:01:53.192Z,100801.50
2022-09-23T04:04:56.156Z,100800.59
2022-09-23T04:07:58.577Z,100800.56
2022-09-23T04:11:02.182Z,100801.41
2022-09-23T04:14:04.768Z,100791.56
2022-09-23T04:17:07.544Z,100792.47
2022-09-23T04:20:10.286Z,100800.44
2022-09-23T04:23:13.254Z,100804.03
2022-09-23T04:26:15.946Z,100795.03
2022-09-23T04:29:18.656Z,100795.78
2022-09-23T04:32:21.050Z,100794.13
2022-09-23T04:35:23.787Z,100791.19
2022-09-23T04:38:26.683Z,100789.50
2022-09-23T04:41:29.703Z,100791.09
2022-09-23T04:44:32.153Z,100766.03
2022-09-23T04:47:34.875Z,100794.59
2022-09-23T04:50:37.756Z,100794.59
2022-09-23T04:53:42.870Z,100802.41
2022-09-23T04:56:45.266Z,100802.53
2022-09-23T04:59:48.769Z,100806.03
2022-09-23T05:02:51.362Z,100803.47
2022-09-23T05:05:55.248Z,100802.69
2022-09-23T05:08:58.633Z,100798.53
2022-09-23T05:12:02.149Z,100801.09
2022-09-23T05:15:05.206Z,100799.47
2022-09-23T05:18:07.948Z,100805.03
2022-09-23T05:21:12.664Z,100799.72
2022-09-23T05:24:16.753Z,100815.91
2022-09-23T05:27:19.944Z,100816.00
2022-09-23T05:30:22.641Z,100815.31
2022-09-23T05:33:25.059Z,100825.31
2022-09-23T05:36:31.140Z,100824.63
2022-09-23T05:39:36.495Z,100829.16
2022-09-23T05:42:39.239Z,100827.50
2022-09-23T05:45:41.648Z,100822.31
2022-09-23T05:48:48.085Z,100826.06
2022-09-23T05:51:50.509Z,100837.78
2022-09-23T05:54:53.894Z,100835.22
2022-09-23T05:57:56.567Z,100828.31
2022-09-23T06:00:59.289Z,100835.62
2022-09-23T06:04:04.184Z,100830.50
2022-09-23T06:07:06.636Z,100837.78
2022-09-23T06:10:09.723Z,100832.63
2022-09-23T06:13:12.722Z,100828.38
2022-09-23T06:16:16.218Z,100825.78
2022-09-23T06:19:19.239Z,100825.91
2022-09-23T06:22:24.765Z,100833.19
2022-09-23T06:25:27.298Z,100833.34
2022-09-23T06:28:32.275Z,100833.41
2022-09-23T06:31:34.792Z,100830.00
2022-09-23T06:34:48.383Z,100830.94
2022-09-23T06:37:55.874Z,100831.06
2022-09-23T06:40:58.689Z,100830.28
2022-09-23T06:44:01.318Z,100836.63
2022-09-23T06:47:04.051Z,100840.22
2022-09-23T06:50:07.407Z,100834.84
2022-09-23T06:53:10.188Z,100841.09
2022-09-23T06:56:13.280Z,100840.13
2022-09-23T06:59:17.085Z,100837.28
2022-09-23T07:02:19.682Z,100829.22
2022-09-23T07:05:22.700Z,100835.81
2022-09-23T07:08:27.225Z,100828.94
2022-09-23T07:11:29.984Z,100834.16
2022-09-23T07:14:32.708Z,100828.06
2022-09-23T07:17:35.486Z,100828.94
2022-09-23T07:20:38.499Z,100828.25
2022-09-23T07:23:46.613Z,100820.34
2022-09-23T07:26:49.715Z,100828.28
2022-09-23T07:29:53.189Z,100831.22
2022-09-23T07:32:55.660Z,100825.00
2022-09-23T07:35:58.401Z,100817.97
2022-09-23T07:39:03.721Z,100820.84
2022-09-23T07:42:06.582Z,100825.22
2022-09-23T07:45:09.363Z,100823.69
2022-09-23T07:48:12.220Z,100827.66
2022-09-23T07:51:23.633Z,100822.09
2022-09-23T07:54:29.996Z,100820.09
2022-09-23T07:57:33.296Z,100816.00
2022-09-23T08:00:36.263Z,100816.47
2022-09-23T08:03:39.519Z,100822.53
2022-09-23T08:06:43.491Z,100813.66
2022-09-23T08:09:46.209Z,100819.38
2022-09-23T08:12:48.992Z,100817.47
2022-09-23T08:15:55.363Z,100810.84
2022-09-23T08:18:58.205Z,100810.53
2022-09-23T08:22:00.948Z,100807.66
2022-09-23T08:25:03.912Z,100789.03
2022-09-23T08:28:08.111Z,100801.97
2022-09-23T08:31:13.660Z,100790.97
2022-09-23T08:34:20.619Z,100791.66
2022-09-23T08:37:23.148Z,100791.72
2022-09-23T08:40:25.905Z,100792.13
2022-09-23T08:43:33.414Z,100792.28
2022-09-23T08:46:39.789Z,100794.84
2022-09-23T08:49:51.068Z,100793.81
2022-09-23T08:53:00.432Z,100800.41
2022-09-23T08:56:11.505Z,100788.63
2022-09-23T08:59:22.341Z,100780.97
2022-09-23T09:02:24.919Z,100783.63
2022-09-23T09:05:28.099Z,100778.78
2022-09-23T09:08:35.876Z,100776.84
2022-09-23T09:11:48.369Z,100764.50
2022-09-23T09:15:07.970Z,100757.19
2022-09-23T09:18:21.648Z,100758.31
2022-09-23T09:21:37.631Z,100755.56
2022-09-23T09:24:40.351Z,100762.34
2022-09-23T09:27:43.041Z,100759.03
2022-09-23T09:30:48.913Z,100747.47
2022-09-23T09:33:59.965Z,100750.28
2022-09-23T09:37:15.704Z,100738.47
2022-09-23T09:40:18.358Z,100748.78
2022-09-23T09:43:24.347Z,100733.03
2022-09-23T09:46:51.684Z,100729.84
2022-09-23T09:50:09.804Z,100736.00
2022-09-23T09:53:15.234Z,100727.31
2022-09-23T09:56:20.719Z,100719.44
2022-09-23T09:59:28.468Z,100730.41
2022-09-23T10:02:34.371Z,100716.19
2022-09-23T10:05:46.233Z,100719.72
2022-09-23T10:09:01.691Z,100724.41
2022-09-23T10:12:15.515Z,100711.06
2022-09-23T10:15:31.389Z,100707.66
2022-09-23T10:18:40.034Z,100698.78
2022-09-23T10:21:42.854Z,100703.75
2022-09-23T10:24:50.579Z,100694.06
2022-09-23T10:27:53.134Z,100694.63
2022-09-23T10:31:06.471Z,100693.50
2022-09-23T10:34:29.504Z,100692.31
2022-09-23T10:37:35.802Z,100686.75
2022-09-23T10:40:58.269Z,100691.06
2022-09-23T10:44:40.109Z,100683.56
2022-09-23T10:47:50.783Z,100686.38
2022-09-23T10:50:54.248Z,100679.03
2022-09-23T10:54:01.748Z,100688.31
2022-09-23T10:57:42.983Z,100680.25
2022-09-23T11:00:57.316Z,100686.34
2022-09-23T11:04:26.137Z,100680.47
2022-09-23T11:07:37.512Z,100675.62
2022-09-23T11:10:53.026Z,100668.78
2022-09-23T11:14:03.392Z,100671.59
2022-09-23T11:17:19.436Z,100673.78
2022-09-23T11:20:50.194Z,100659.88
2022-09-23T11:23:55.549Z,100664.16
2022-09-23T11:27:10.870Z,100660.13
2022-09-23T11:30:16.754Z,100657.19
2022-09-23T11:33:36.856Z,100655.31
2022-09-23T11:37:05.888Z,100650.47
2022-09-23T11:40:19.158Z,100628.09
2022-09-23T11:43:24.552Z,100646.78
2022-09-23T11:46:41.044Z,100637.63
2022-09-23T11:49:51.677Z,100639.47
2022-09-23T11:53:17.843Z,100634.56
2022-09-23T11:56:34.859Z,100626.72
2022-09-23T11:59:52.212Z,100620.19
2022-09-23T12:03:17.874Z,100623.22
2022-09-23T12:06:46.517Z,100626.03
2022-09-23T12:10:00.265Z,100613.53
2022-09-23T12:13:13.228Z,100608.62
2022-09-23T12:16:44.496Z,100608.09
2022-09-23T12:20:09.396Z,100607.53
2022-09-23T12:23:21.019Z,100609.78
2022-09-23T12:26:25.177Z,100605.78
2022-09-23T12:29:30.254Z,100603.78
2022-09-23T12:32:34.041Z,100611.19
2022-09-23T12:35:42.551Z,100603.50
2022-09-23T12:38:50.793Z,100598.72
2022-09-23T12:42:11.104Z,100593.97
2022-09-23T12:45:38.637Z,100592.31
2022-09-23T12:48:58.198Z,100597.69
2022-09-23T12:52:16.438Z,100598.41
2022-09-23T12:55:24.449Z,100593.59
2022-09-23T12:58:57.675Z,100577.22
2022-09-23T13:02:24.995Z,100572.28
2022-09-23T13:05:47.364Z,100574.78
2022-09-23T13:08:49.996Z,100565.47
2022-09-23T13:11:53.564Z,100565.09
2022-09-23T13:15:00.776Z,100557.31
2022-09-23T13:18:18.623Z,100559.97
2022-09-23T13:21:42.654Z,100558.06
2022-09-23T13:24:55.658Z,100560.31
2022-09-23T13:28:01.392Z,100549.25
2022-09-23T13:31:14.108Z,100547.88
2022-09-23T13:34:20.337Z,100543.28
2022-09-23T13:37:26.564Z,100533.56
2022-09-23T13:40:29.965Z,100536.59
2022-09-23T13:43:40.904Z,100535.22
2022-09-23T13:46:47.589Z,100528.37
2022-09-23T13:49:50.697Z,100529.84
2022-09-23T13:52:57.764Z,100524.38
2022-09-23T13:56:20.894Z,100522.69
2022-09-23T13:59:30.111Z,100525.63
2022-09-23T14:02:42.688Z,100522.81
2022-09-23T14:05:46.410Z,100516.38
2022-09-23T14:08:50.363Z,100521.34
2022-09-23T14:11:54.610Z,100518.87
2022-09-23T14:14:57.234Z,100506.13
2022-09-23T14:18:03.548Z,100511.87
2022-09-23T14:21:06.934Z,100503.09
2022-09-23T14:24:18.706Z,100508.94
2022-09-23T14:27:30.085Z,100509.34
2022-09-23T14:30:32.973Z,100497.81
2022-09-23T14:33:40.067Z,100501.66
2022-09-23T14:37:01.482Z,100498.19
2022-09-23T14:40:09.087Z,100489.34
2022-09-23T14:43:23.203Z,100481.25
2022-09-23T14:46:35.019Z,100478.53
2022-09-23T14:49:37.750Z,100477.94
2022-09-23T14:52:49.372Z,100473.56
2022-09-23T14:55:59.635Z,100473.72
2022-09-23T14:59:02.331Z,100465.81
2022-09-23T15:02:27.566Z,100469.47
2022-09-23T15:05:51.023Z,100475.03
2022-09-23T15:08:55.417Z,100466.19
2022-09-23T15:12:01.201Z,100476.22
2022-09-23T15:15:05.937Z,100470.84
2022-09-23T15:18:15.737Z,100463.34
2022-09-23T15:21:21.522Z,100461.53
2022-09-23T15:24:45.269Z,100460.72
2022-09-23T15:28:24.341Z,100450.87
2022-09-23T15:31:26.986Z,100456.44
2022-09-23T15:34:30.964Z,100450.25
2022-09-23T15:37:36.334Z,100453.81
2022-09-23T15:40:40.438Z,100452.16
2022-09-23T15:43:43.084Z,100438.25
2022-09-23T15:46:47.220Z,100437.31
2022-09-23T15:49:49.863Z,100436.81
2022-09-23T15:52:52.740Z,100429.63
2022-09-23T15:55:55.230Z,100435.19
2022-09-23T15:58:58.003Z,100425.22
2022-09-23T16:02:05.840Z,100426.44
2022-09-23T16:05:37.881Z,100421.44
2022-09-23T16:08:42.329Z,100416.47
2022-09-23T16:11:47.077Z,100425.84
2022-09-23T16:14:49.548Z,100428.53
2022-09-23T16:17:52.263Z,100425.19
2022-09-23T16:20:54.890Z,100424.78
2022-09-23T16:23:59.288Z,100428.62
2022-09-23T16:27:04.775Z,100432.53
2022-09-23T16:30:08.114Z,100432.78
2022-09-23T16:33:10.561Z,100443.63
2022-09-23T16:36:25.387Z,100443.91
2022-09-23T16:39:28.009Z,100442.44
2022-09-23T16:42:30.782Z,100439.34
2022-09-23T16:45:33.435Z,100451.63
2022-09-23T16:48:40.636Z,100442.25
2022-09-23T16:51:43.195Z,100436.38
2022-09-23T16:54:48.504Z,100446.59
2022-09-23T16:57:51.437Z,100447.84
2022-09-23T17:01:15.950Z,100443.56
2022-09-23T17:04:19.468Z,100448.03
2022-09-23T17:07:22.150Z,100441.28
2022-09-23T17:10:24.584Z,100440.56
2022-09-23T17:13:28.491Z,100446.19
2022-09-23T17:16:32.795Z,100448.34
2022-09-23T17:19:37.826Z,100436.75
2022-09-23T17:22:41.059Z,100445.00
2022-09-23T17:25:48.138Z,100445.12
2022-09-23T17:28:57.538Z,100450.69
2022-09-23T17:32:00.289Z,100452.50
2022-09-23T17:35:04.706Z,100447.16
2022-09-23T17:38:07.519Z,100447.97
2022-09-23T17:41:09.967Z,100447.94
2022-09-23T17:44:12.756Z,100446.34
2022-09-23T17:47:15.209Z,100447.37
2022-09-23T17:50:18.515Z,100452.97
2022-09-23T17:53:21.001Z,100447.75
2022-09-23T17:56:25.324Z,100453.25
2022-09-23T17:59:28.223Z,100450.59
2022-09-23T18:02:30.951Z,100456.03
2022-09-23T18:05:33.649Z,100459.72
2022-09-23T18:08:36.717Z,100462.56
2022-09-23T18:11:42.561Z,100460.81
2022-09-23T18:14:45.400Z,100459.09
2022-09-23T18:17:48.105Z,100470.75
2022-09-23T18:20:50.572Z,100471.75
2022-09-23T18:23:53.374Z,100460.06
2022-09-23T18:26:59.556Z,100461.91
2022-09-23T18:30:02.561Z,100461.06
2022-09-23T18:33:05.232Z,100465.59
2022-09-23T18:36:08.754Z,100455.72
2022-09-23T18:39:11.459Z,100456.72
2022-09-23T18:42:14.279Z,100461.16
2022-09-23T18:45:16.730Z,100457.66
2022-09-23T18:48:38.288Z,100457.72
2022-09-23T18:51:55.833Z,100455.06
2022-09-23T18:55:00.057Z,100453.31
2022-09-23T18:58:02.888Z,100457.81
2022-09-23T19:01:09.885Z,100447.91
2022-09-23T19:04:13.855Z,100458.72
2022-09-23T19:07:17.086Z,100457.81
2022-09-23T19:10:19.758Z,100455.16
2022-09-23T19:13:22.588Z,100449.88
2022-09-23T19:16:25.959Z,100454.34
2022-09-23T19:19:29.410Z,100453.47
2022-09-23T19:22:32.795Z,100456.16
2022-09-23T19:25:36.267Z,100454.37
2022-09-23T19:28:39.532Z,100457.03
2022-09-23T19:31:42.595Z,100458.81
2022-09-23T19:34:46.283Z,100449.88
2022-09-23T19:37:49.380Z,100452.59
2022-09-23T19:40:52.209Z,100452.62
2022-09-23T19:43:55.181Z,100450.87
2022-09-23T19:46:57.848Z,100451.78
2022-09-23T19:50:00.717Z,100445.50
2022-09-23T19:53:07.018Z,100450.87
2022-09-23T19:56:09.875Z,100443.75
2022-09-23T19:59:17.791Z,100440.19
2022-09-23T20:02:21.560Z,100443.78
2022-09-23T20:05:25.586Z,100452.72
2022-09-23T20:08:28.103Z,100442.00
2022-09-23T20:11:32.489Z,100450.94
2022-09-23T20:14:34.891Z,100449.16
2022-09-23T20:17:40.943Z,100456.31
2022-09-23T20:20:43.416Z,100444.69
2022-09-23T20:23:46.110Z,100450.97
2022-09-23T20:27:07.178Z,100446.47
2022-09-23T20:30:11.013Z,100447.31
2022-09-23T20:33:15.221Z,100438.28
2022-09-23T20:36:18.152Z,100439.25
2022-09-23T20:39:20.642Z,100435.56
2022-09-23T20:42:23.356Z,100440.03
2022-09-23T20:45:25.779Z,100440.81
2022-09-23T20:48:29.532Z,100431.88
2022-09-23T20:51:35.048Z,100438.09
2022-09-23T20:54:41.707Z,100448.00
2022-09-23T20:57:45.250Z,100435.56
2022-09-23T21:00:48.023Z,100430.25
2022-09-23T21:03:52.433Z,100424.84
2022-09-23T21:06:57.493Z,100434.69
2022-09-23T21:10:02.580Z,100431.97
2022-09-23T21:13:06.947Z,100430.19
2022-09-23T21:16:12.849Z,100423.03
2022-09-23T21:19:15.556Z,100431.00
2022-09-23T21:22:18.598Z,100432.78
2022-09-23T21:25:29.559Z,100433.66
2022-09-23T21:28:34.218Z,100439.91
2022-09-23T21:31:38.819Z,100430.94
2022-09-23T21:34:41.470Z,100433.66
2022-09-23T21:37:44.424Z,100428.28
2022-09-23T21:40:58.586Z,100426.63
2022-09-23T21:44:04.693Z,100422.16
2022-09-23T21:47:07.338Z,100420.47
2022-09-23T21:50:10.119Z,100415.16
2022-09-23T21:53:12.557Z,100427.72
2022-09-23T21:56:21.132Z,100443.81
2022-09-23T21:59:23.804Z,100430.44
2022-09-23T22:02:27.538Z,100429.56
2022-09-23T22:05:30.283Z,100426.87
2022-09-23T22:08:37.032Z,100422.44
2022-09-23T22:12:15.919Z,100414.38
2022-09-23T22:15:19.687Z,100420.63
2022-09-23T22:18:22.507Z,100423.31
2022-09-23T22:21:26.829Z,100424.22
2022-09-23T22:24:29.554Z,100428.69
2022-09-23T22:27:32.017Z,100434.03
2022-09-23T22:30:53.321Z,100430.47
2022-09-23T22:33:55.746Z,100424.22
2022-09-23T22:37:00.424Z,100429.56
2022-09-23T22:40:08.570Z,100420.63
2022-09-23T22:43:11.431Z,100419.72
2022-09-23T22:46:15.326Z,100420.63
2022-09-23T22:49:20.344Z,100427.75
2022-09-23T22:52:24.552Z,100427.78
2022-09-23T22:55:28.016Z,100422.41
2022-09-23T22:58:32.557Z,100425.97
2022-09-23T23:01:35.973Z,100421.50
2022-09-23T23:04:38.407Z,100426.84
2022-09-23T23:07:41.858Z,100418.81
2022-09-23T23:10:44.285Z,100425.06
2022-09-23T23:13:46.951Z,100422.41
2022-09-23T23:16:49.655Z,100420.59
2022-09-23T23:19:52.437Z,100417.94
2022-09-23T23:22:54.993Z,100415.28
2022-09-23T23:25:57.682Z,100412.59
2022-09-23T23:29:02.094Z,100417.06
2022-09-23T23:32:05.996Z,100407.22
2022-09-23T23:35:09.033Z,100405.44
2022-09-23T23:38:12.721Z,100404.56
2022-09-23T23:41:22.683Z,100407.22
2022-09-23T23:44:26.405Z,100402.78
2022-09-23T23:47:28.866Z,100398.31
2022-09-23T23:50:31.605Z,100392.94
2022-09-23T23:53:36.047Z,100395.63
2022-09-23T23:56:38.744Z,100397.41
2022-09-23T23:59:41.519Z,100390.25
